createdAt,value
2018-09-04T04:38:17.129Z,12.45
2018-09-04T04:41:08.997Z,12.68
2018-09-04T04:43:51.350Z,12.07
2018-09-04T04:46:43.312Z,11.75
2018-09-04T04:49:23.363Z,11.85
2018-09-04T04:52:01.487Z,11.68
2018-09-04T04:54:43.391Z,11.88
2018-09-04T04:57:15.228Z,10.95
2018-09-04T04:59:47.783Z,11.55
2018-09-04T05:02:24.989Z,12.55
2018-09-04T05:04:59.475Z,11.08
2018-09-04T05:07:32.182Z,10.55
2018-09-04T05:10:05.267Z,10.60
2018-09-04T05:12:37.259Z,11.73
2018-09-04T05:15:17.392Z,11.95
2018-09-04T05:17:49.808Z,10.70
2018-09-04T05:20:27.285Z,11.57
2018-09-04T05:22:58.775Z,11.90
2018-09-04T05:25:36.085Z,13.58
2018-09-04T05:28:12.897Z,11.57
2018-09-04T05:30:48.445Z,11.40
2018-09-04T05:33:39.790Z,11.57
2018-09-04T05:36:18.348Z,12.85
2018-09-04T05:39:15.787Z,13.75
2018-09-04T05:41:52.528Z,13.20
2018-09-04T05:44:27.579Z,13.55
2018-09-04T05:47:03.340Z,13.68
2018-09-04T05:49:58.774Z,13.30
2018-09-04T05:52:30.483Z,12.23
2018-09-04T05:55:06.905Z,13.85
2018-09-04T05:57:43.702Z,13.32
2018-09-04T06:00:22.781Z,13.43
2018-09-04T06:02:58.219Z,14.78
2018-09-04T06:05:34.755Z,13.70
2018-09-04T06:08:09.922Z,12.68
2018-09-04T06:10:43.377Z,13.05
2018-09-04T06:13:17.429Z,13.68
2018-09-04T06:16:12.265Z,14.25
2018-09-04T06:18:45.976Z,15.03
2018-09-04T06:21:20.455Z,13.85
2018-09-04T06:23:51.219Z,15.95
2018-09-04T06:26:23.662Z,16.02
2018-09-04T06:28:52.963Z,16.00
2018-09-04T06:31:25.272Z,15.13
2018-09-04T06:33:59.503Z,13.78
2018-09-04T06:36:36.024Z,14.45
2018-09-04T06:39:14.439Z,11.68
2018-09-04T06:41:51.453Z,14.40
2018-09-04T06:44:26.995Z,13.83
2018-09-04T06:46:58.146Z,13.75
2018-09-04T06:49:30.445Z,13.48
2018-09-04T06:52:05.722Z,15.43
2018-09-04T06:54:41.063Z,14.05
2018-09-04T06:57:12.920Z,14.63
2018-09-04T06:59:46.424Z,14.83
2018-09-04T07:02:21.572Z,15.63
2018-09-04T07:04:56.547Z,14.05
2018-09-04T07:07:31.379Z,15.30
2018-09-04T07:10:04.355Z,15.38
2018-09-04T07:12:40.416Z,15.63
2018-09-04T07:15:15.138Z,14.55
2018-09-04T07:17:50.638Z,13.95
2018-09-04T07:20:21.731Z,14.00
2018-09-04T07:22:51.821Z,14.28
2018-09-04T07:25:25.706Z,14.65
2018-09-04T07:28:01.818Z,13.03
2018-09-04T07:30:36.081Z,13.50
2018-09-04T07:33:08.838Z,14.75
2018-09-04T07:35:40.358Z,13.68
2018-09-04T07:38:28.351Z,13.35
2018-09-04T07:41:07.625Z,14.03
2018-09-04T07:43:39.301Z,14.78
2018-09-04T07:46:13.920Z,13.60
2018-09-04T07:48:49.306Z,13.70
2018-09-04T07:51:20.514Z,14.53
2018-09-04T07:53:56.393Z,15.20
2018-09-04T07:56:27.315Z,15.50
2018-09-04T07:59:04.411Z,15.28
2018-09-04T08:01:40.407Z,14.78
2018-09-04T08:04:12.422Z,15.10
2018-09-04T08:06:45.132Z,14.93
2018-09-04T08:09:20.455Z,14.68
2018-09-04T08:11:52.428Z,16.25
2018-09-04T08:14:26.053Z,16.62
2018-09-04T08:16:57.518Z,16.55
2018-09-04T08:19:30.441Z,15.08
2018-09-04T08:22:03.735Z,15.53
2018-09-04T08:24:38.658Z,15.00
2018-09-04T08:27:06.279Z,15.75
2018-09-04T08:29:33.878Z,16.90
2018-09-04T08:32:01.733Z,16.15
2018-09-04T08:34:32.194Z,16.42
2018-09-04T08:37:00.126Z,17.45
2018-09-04T08:39:27.694Z,17.48
2018-09-04T08:41:55.295Z,17.07
2018-09-04T08:44:22.885Z,17.57
2018-09-04T08:46:50.385Z,16.77
2018-09-04T08:49:17.963Z,18.75
2018-09-04T08:51:45.517Z,17.85
2018-09-04T08:54:13.103Z,17.07
2018-09-04T08:56:40.646Z,18.23
2018-09-04T08:59:08.278Z,18.85
2018-09-04T09:01:35.823Z,16.62
2018-09-04T09:04:03.473Z,16.87
2018-09-04T09:06:30.994Z,18.12
2018-09-04T09:08:58.593Z,17.80
2018-09-04T09:11:26.134Z,16.35
2018-09-04T09:13:53.795Z,15.68
2018-09-04T09:16:21.389Z,14.65
2018-09-04T09:18:48.954Z,17.45
2018-09-04T09:21:16.617Z,17.48
2018-09-04T09:23:44.104Z,15.08
2018-09-04T09:26:11.665Z,16.25
2018-09-04T09:28:39.169Z,13.88
2018-09-04T09:31:06.800Z,16.20
2018-09-04T09:33:34.304Z,16.55
2018-09-04T09:36:02.088Z,14.80
2018-09-04T09:38:29.593Z,14.40
2018-09-04T09:40:57.212Z,14.63
2018-09-04T09:43:24.750Z,12.70
2018-09-04T09:45:52.310Z,13.50
2018-09-04T09:48:19.879Z,14.85
2018-09-04T09:50:47.540Z,14.73
2018-09-04T09:53:15.286Z,15.75
2018-09-04T09:55:42.659Z,16.23
2018-09-04T09:58:10.171Z,15.25
2018-09-04T10:00:53.092Z,14.55
2018-09-04T10:03:26.331Z,15.45
2018-09-04T10:08:30.834Z,13.20
2018-09-04T10:10:58.771Z,13.00
2018-09-04T10:13:30.376Z,11.80
2018-09-04T10:16:04.584Z,11.93
2018-09-04T10:18:41.969Z,12.55
2018-09-04T10:21:14.061Z,13.60
2018-09-04T10:23:48.573Z,12.68
2018-09-04T10:26:21.073Z,12.75
2018-09-04T10:28:56.322Z,13.00
2018-09-04T10:31:30.700Z,13.58
2018-09-04T10:34:06.356Z,12.55
2018-09-04T10:36:41.740Z,13.13
2018-09-04T10:43:47.746Z,11.85
2018-09-04T10:46:26.215Z,11.18
2018-09-04T10:48:57.594Z,11.65
2018-09-04T10:51:32.568Z,10.48
2018-09-04T10:54:06.310Z,9.60
2018-09-04T10:56:44.885Z,11.73
2018-09-04T10:59:17.437Z,12.40
2018-09-04T11:01:56.279Z,12.25
2018-09-04T11:04:28.066Z,12.80
2018-09-04T11:06:58.811Z,12.85
2018-09-04T11:09:29.642Z,14.68
2018-09-04T11:12:01.559Z,12.68
2018-09-04T11:14:32.653Z,12.68
2018-09-04T11:17:04.405Z,10.85
2018-09-04T11:19:37.584Z,12.98
2018-09-04T11:22:09.054Z,12.80
2018-09-04T11:24:41.028Z,11.90
2018-09-04T11:27:11.638Z,13.30
2018-09-04T11:29:45.044Z,12.65
2018-09-04T11:32:16.571Z,11.15
2018-09-04T11:34:48.600Z,11.50
2018-09-04T11:37:20.728Z,10.98
2018-09-04T11:39:53.583Z,11.47
2018-09-04T11:42:25.437Z,12.93
2018-09-04T11:44:57.438Z,12.43
2018-09-04T11:47:28.574Z,12.50
2018-09-04T11:50:01.482Z,11.90
2018-09-04T11:52:36.764Z,10.80
2018-09-04T11:55:08.261Z,11.20
2018-09-04T11:57:43.646Z,11.27
2018-09-04T12:00:19.259Z,11.73
2018-09-04T12:02:51.901Z,11.10
2018-09-04T12:05:24.194Z,11.67
2018-09-04T12:07:59.973Z,10.60
2018-09-04T12:10:32.051Z,11.63
2018-09-04T12:13:05.224Z,12.10
2018-09-04T12:15:41.135Z,11.70
2018-09-04T12:18:11.743Z,12.30
2018-09-04T12:20:49.072Z,12.37
2018-09-04T12:23:24.089Z,10.60
2018-09-04T12:25:59.285Z,11.43
2018-09-04T12:28:37.947Z,10.87
2018-09-04T12:31:12.289Z,12.10
2018-09-04T12:33:51.163Z,11.90
2018-09-04T12:36:22.801Z,11.07
2018-09-04T12:38:58.111Z,12.27
2018-09-04T12:41:30.309Z,10.70
2018-09-04T12:44:05.270Z,9.07
2018-09-04T12:46:38.538Z,8.30
2018-09-04T12:49:15.738Z,9.33
2018-09-04T12:51:49.966Z,12.33
2018-09-04T12:54:22.910Z,10.53
2018-09-04T13:02:11.253Z,10.30
2018-09-04T13:04:45.010Z,12.00
2018-09-04T13:19:19.935Z,9.43
2018-09-04T13:21:52.351Z,9.40
2018-09-04T13:24:26.900Z,9.70
2018-09-04T13:26:59.767Z,9.70
2018-09-04T13:29:32.551Z,9.73
2018-09-04T13:32:04.652Z,8.60
2018-09-04T13:34:37.040Z,9.47
2018-09-04T13:37:08.469Z,9.13
2018-09-04T13:39:40.297Z,10.03
2018-09-04T13:42:11.447Z,9.07
2018-09-04T13:44:45.085Z,9.90
2018-09-04T13:47:17.446Z,8.30
2018-09-04T13:49:48.942Z,7.70
2018-09-04T13:52:21.344Z,8.30
2018-09-04T13:54:54.958Z,7.93
2018-09-04T14:16:22.025Z,8.70
2018-09-04T14:19:00.247Z,8.20
2018-09-04T14:21:34.930Z,8.87
2018-09-04T14:24:05.067Z,8.47
2018-09-04T14:26:34.083Z,7.23
2018-09-04T14:29:06.859Z,7.23
2018-09-04T14:31:31.842Z,8.13
2018-09-04T14:33:59.486Z,8.33
2018-09-04T14:36:27.210Z,7.60
2018-09-04T14:38:54.659Z,7.50
2018-09-04T14:41:22.339Z,9.20
2018-09-04T14:43:49.902Z,8.43
2018-09-04T14:46:18.815Z,8.80
2018-09-04T14:48:46.439Z,8.70
2018-09-04T14:51:14.066Z,8.77
2018-09-04T14:53:41.681Z,9.43
2018-09-04T14:56:09.278Z,8.30
2018-09-04T14:58:36.840Z,7.90
2018-09-04T15:01:04.529Z,7.80
2018-09-04T15:03:32.084Z,7.90
2018-09-04T15:06:03.149Z,9.40
2018-09-04T15:08:32.757Z,8.80
2018-09-04T15:11:05.032Z,8.70
2018-09-04T15:13:34.549Z,9.40
2018-09-04T15:16:04.411Z,10.57
2018-09-04T15:18:34.930Z,10.17
2018-09-04T15:21:05.591Z,10.57
2018-09-04T15:23:38.328Z,10.83
2018-09-04T15:26:12.083Z,10.90
2018-09-04T15:28:45.081Z,9.40
2018-09-04T15:31:16.183Z,9.50
2018-09-04T15:33:49.266Z,9.33
2018-09-04T15:36:22.918Z,9.80
2018-09-04T15:38:51.736Z,10.33
2018-09-04T15:44:09.025Z,9.67
2018-09-04T15:46:42.287Z,9.23
2018-09-04T15:49:19.436Z,10.30
2018-09-04T15:51:48.527Z,8.70
2018-09-04T15:54:23.959Z,8.50
2018-09-04T17:34:57.475Z,9.80
2018-09-04T17:37:31.199Z,9.93
2018-09-04T17:40:00.932Z,8.73
2018-09-04T17:42:32.040Z,9.00
2018-09-04T17:45:08.245Z,9.07
2018-09-04T17:47:42.509Z,9.40
2018-09-04T17:50:14.945Z,8.50
2018-09-04T17:52:50.210Z,8.93
2018-09-04T17:55:24.596Z,9.60
2018-09-04T17:57:58.835Z,9.87
2018-09-04T18:00:32.144Z,9.37
2018-09-04T18:03:03.767Z,9.60
2018-09-04T18:05:37.174Z,8.77
2018-09-04T18:08:09.460Z,8.20
2018-09-04T18:10:41.817Z,9.27
2018-09-04T18:13:18.902Z,9.33
2018-09-04T18:15:50.576Z,10.50
2018-09-04T18:18:23.145Z,9.80
2018-09-04T18:20:57.615Z,9.75
2018-09-04T18:23:29.446Z,9.30
2018-09-04T18:26:02.168Z,10.00
2018-09-04T18:28:35.371Z,10.40
2018-09-04T18:31:07.859Z,9.17
2018-09-04T18:33:44.054Z,9.27
2018-09-04T18:36:17.037Z,9.30
2018-09-04T18:38:51.111Z,10.10
2018-09-04T18:41:25.017Z,10.60
2018-09-04T18:43:57.497Z,9.77
2018-09-04T18:46:30.556Z,9.63
2018-09-04T18:49:03.472Z,10.00
2018-09-04T18:51:35.982Z,10.82
2018-09-04T18:54:10.170Z,10.83
2018-09-04T18:56:42.406Z,10.50
2018-09-04T18:59:16.062Z,11.57
2018-09-04T19:01:48.274Z,10.65
2018-09-04T19:04:19.323Z,11.53
2018-09-04T19:06:52.346Z,10.40
2018-09-04T19:09:25.826Z,10.40
2018-09-04T19:12:00.515Z,10.18
2018-09-04T19:14:32.572Z,10.60
2018-09-04T19:17:03.651Z,11.38
2018-09-04T19:19:36.483Z,9.80
2018-09-04T19:22:10.775Z,10.15
2018-09-04T19:24:46.413Z,10.55
2018-09-04T19:27:21.291Z,11.05
2018-09-04T19:29:53.594Z,10.40
2018-09-04T19:32:30.978Z,11.95
2018-09-04T19:35:04.474Z,11.55
2018-09-04T19:37:39.167Z,11.28
2018-09-04T19:40:12.128Z,11.00
2018-09-04T19:42:45.594Z,11.70
2018-09-04T19:45:19.457Z,11.03
2018-09-04T19:47:52.954Z,11.75
2018-09-04T19:50:29.536Z,10.40
2018-09-04T19:53:02.831Z,11.00
2018-09-04T19:55:37.573Z,10.40
2018-09-04T19:58:10.290Z,11.08
2018-09-04T20:00:41.901Z,10.65
2018-09-04T20:03:15.973Z,9.63
2018-09-04T20:05:48.659Z,10.60
2018-09-04T20:08:19.638Z,10.10
2018-09-04T20:10:53.903Z,10.45
2018-09-04T20:13:26.294Z,10.50
2018-09-04T20:15:57.957Z,10.70
2018-09-04T20:18:30.805Z,11.33
2018-09-04T20:21:04.110Z,10.72
2018-09-04T20:23:41.925Z,11.28
2018-09-04T20:26:13.570Z,9.68
2018-09-04T20:28:45.582Z,10.80
2018-09-04T20:31:20.883Z,11.18
2018-09-04T20:33:53.949Z,10.25
2018-09-04T20:36:27.970Z,11.15
2018-09-04T20:38:58.798Z,11.18
2018-09-04T20:41:31.975Z,10.53
2018-09-04T20:44:04.630Z,11.73
2018-09-04T20:46:36.543Z,11.40
2018-09-04T20:49:10.087Z,11.43
2018-09-04T20:51:42.232Z,11.80
2018-09-04T20:54:15.031Z,10.82
2018-09-04T21:11:50.364Z,10.65
2018-09-04T21:14:22.691Z,10.98
2018-09-04T21:16:58.393Z,11.00
2018-09-04T21:19:31.873Z,11.80
2018-09-04T21:22:07.681Z,11.48
2018-09-04T21:24:39.600Z,10.25
2018-09-04T21:27:12.040Z,11.45
2018-09-04T21:29:44.774Z,11.97
2018-09-04T21:32:21.311Z,12.20
2018-09-04T21:34:54.097Z,11.55
2018-09-04T21:37:28.948Z,11.48
2018-09-04T21:40:01.582Z,11.43
2018-09-04T21:42:35.328Z,11.83
2018-09-04T21:45:08.747Z,12.23
2018-09-04T21:47:41.811Z,12.20
2018-09-04T21:50:14.190Z,11.63
2018-09-04T21:52:48.131Z,12.10
2018-09-04T21:55:23.280Z,11.30
2018-09-04T21:57:59.180Z,12.53
2018-09-04T22:00:34.102Z,12.05
2018-09-04T22:03:07.975Z,12.10
2018-09-04T22:05:42.060Z,11.90
2018-09-04T22:08:15.373Z,12.60
2018-09-04T22:10:51.418Z,11.68
2018-09-04T22:13:23.185Z,11.48
2018-09-04T22:15:57.033Z,11.48
2018-09-04T22:18:32.105Z,12.35
2018-09-04T22:21:09.730Z,12.47
2018-09-04T22:23:42.901Z,11.90
2018-09-04T22:26:16.798Z,11.75
2018-09-04T22:28:52.437Z,11.85
2018-09-04T22:31:25.209Z,12.35
2018-09-04T22:33:57.647Z,11.95
2018-09-04T22:36:32.296Z,11.83
2018-09-04T22:39:05.480Z,11.57
2018-09-04T22:41:38.466Z,11.97
2018-09-04T22:44:10.529Z,11.93
2018-09-04T22:46:43.244Z,11.63
2018-09-04T22:49:20.379Z,13.08
2018-09-04T22:52:00.267Z,13.32
2018-09-04T22:54:33.322Z,13.18
2018-09-04T22:57:07.621Z,12.37
2018-09-04T22:59:40.043Z,12.20
2018-09-04T23:02:13.712Z,12.00
2018-09-04T23:04:49.687Z,12.58
2018-09-04T23:07:22.033Z,13.70
2018-09-04T23:09:58.392Z,14.40
2018-09-04T23:12:31.194Z,13.08
2018-09-04T23:15:07.363Z,15.18
2018-09-04T23:17:44.252Z,15.85
2018-09-04T23:20:21.040Z,15.40
2018-09-04T23:22:54.184Z,16.90
2018-09-04T23:25:29.717Z,15.68
2018-09-04T23:28:02.914Z,15.65
2018-09-04T23:30:38.340Z,15.93
2018-09-04T23:33:11.759Z,16.15
2018-09-04T23:35:45.147Z,16.37
2018-09-04T23:38:16.860Z,17.20
2018-09-04T23:40:50.978Z,17.20
2018-09-04T23:43:23.469Z,18.50
2018-09-04T23:45:56.114Z,17.40
2018-09-04T23:48:33.659Z,17.60
2018-09-04T23:51:09.868Z,18.05
2018-09-04T23:53:42.754Z,17.25
2018-09-04T23:56:19.003Z,16.17
2018-09-04T23:58:50.462Z,18.57
